Time;durP1;ratioP1;P1;durP2;ratioP2;P2;SDS_P1;SDS_P2;PMS_P1;PMS_P2;Temp;Humidity;BMP_temperature;BMP_pressure;BME280_temperature;BME280_humidity;BME280_pressure;Samples;Min_cycle;Max_cycle;Signal;HPM_P1;HPM_P2
2022/07/31 00:00:01;;;;;;;;;2.67;2.67;;;;;;;;5008760;28;51228;-58
2022/07/31 00:02:26;;;;;;;;;2.00;2.00;;;;;;;;5008621;28;51216;-60
2022/07/31 00:04:52;;;;;;;;;2.00;2.00;;;;;;;;5009271;28;51280;-59
2022/07/31 00:07:17;;;;;;;;;3.00;2.00;;;;;;;;5010248;28;51266;-59
2022/07/31 00:09:42;;;;;;;;;4.00;2.67;;;;;;;;5012020;28;52248;-59
2022/07/31 00:12:07;;;;;;;;;2.00;2.00;;;;;;;;5012499;28;52430;-60
2022/07/31 00:14:32;;;;;;;;;2.00;2.00;;;;;;;;5012593;28;51892;-60
2022/07/31 00:16:58;;;;;;;;;1.67;1.67;;;;;;;;5011399;28;51329;-60
2022/07/31 00:19:23;;;;;;;;;2.00;2.00;;;;;;;;5012457;28;51987;-59
2022/07/31 00:21:48;;;;;;;;;1.00;1.00;;;;;;;;5012876;28;51186;-60
2022/07/31 00:24:13;;;;;;;;;2.00;2.00;;;;;;;;5012252;28;51334;-60
2022/07/31 00:26:39;;;;;;;;;2.00;2.00;;;;;;;;5011786;28;51182;-59
2022/07/31 00:29:05;;;;;;;;;2.67;2.67;;;;;;;;5008573;28;51294;-60
2022/07/31 00:31:30;;;;;;;;;2.33;2.33;;;;;;;;5011147;28;52590;-59
2022/07/31 00:33:55;;;;;;;;;4.00;3.00;;;;;;;;5010920;28;51403;-60
2022/07/31 00:36:21;;;;;;;;;4.00;2.67;;;;;;;;5012120;28;52682;-60
2022/07/31 00:38:46;;;;;;;;;2.00;2.00;;;;;;;;5011624;28;51839;-59
2022/07/31 00:41:12;;;;;;;;;2.00;2.00;;;;;;;;5012428;28;51186;-60
2022/07/31 00:43:37;;;;;;;;;1.33;1.33;;;;;;;;5011729;28;51216;-58
2022/07/31 00:46:02;;;;;;;;;1.33;1.33;;;;;;;;5012561;28;51216;-59
2022/07/31 00:48:27;;;;;;;;;1.33;1.00;;;;;;;;5011533;28;53498;-59
2022/07/31 00:50:52;;;;;;;;;1.00;1.00;;;;;;;;5011650;28;51283;-59
2022/07/31 00:53:18;;;;;;;;;3.00;2.00;;;;;;;;5011928;28;51111;-58
2022/07/31 00:55:45;;;;;;;;;2.00;1.00;;;;;;;;5012167;28;51296;-58
2022/07/31 00:58:11;;;;;;;;;1.67;1.67;;;;;;;;5011511;28;51218;-60
2022/07/31 01:00:36;;;;;;;;;1.00;1.00;;;;;;;;5011490;28;51299;-59
2022/07/31 01:03:01;;;;;;;;;3.00;3.00;;;;;;;;5012080;28;51360;-61
2022/07/31 01:05:26;;;;;;;;;2.00;1.00;;;;;;;;5012117;28;51267;-59
2022/07/31 01:07:51;;;;;;;;;1.33;1.00;;;;;;;;5011664;28;51303;-60
2022/07/31 01:10:35;;;;;;;;;1.00;1.00;;;;;;;;5012871;28;51101;-60
2022/07/31 01:13:07;;;;;;;;;1.00;1.00;;;;;;;;5012303;28;51208;-60
2022/07/31 01:15:33;;;;;;;;;2.00;1.00;;;;;;;;5011903;28;51095;-59
2022/07/31 01:17:59;;;;;;;;;2.00;1.00;;;;;;;;5012097;28;53038;-59
2022/07/31 01:20:25;;;;;;;;;2.67;2.00;;;;;;;;5011154;28;51411;-60
2022/07/31 01:23:17;;;;;;;;;2.00;2.00;;;;;;;;5012117;28;51342;-60
2022/07/31 01:25:55;;;;;;;;;1.00;1.00;;;;;;;;5009009;28;51207;-58
2022/07/31 01:28:39;;;;;;;;;1.00;1.00;;;;;;;;5011796;28;52328;-58
2022/07/31 01:31:15;;;;;;;;;1.33;1.00;;;;;;;;5011911;28;51339;-60
2022/07/31 01:34:00;;;;;;;;;1.00;1.00;;;;;;;;5012675;28;51221;-60
2022/07/31 01:36:33;;;;;;;;;2.00;1.00;;;;;;;;5011607;28;51269;-62
2022/07/31 01:38:58;;;;;;;;;3.00;2.00;;;;;;;;5012017;28;51305;-61
2022/07/31 01:41:25;;;;;;;;;2.00;2.00;;;;;;;;5011516;28;51179;-58
2022/07/31 01:43:53;;;;;;;;;4.00;4.00;;;;;;;;5012150;28;51416;-58
2022/07/31 01:46:19;;;;;;;;;2.00;2.00;;;;;;;;5011757;28;52442;-60
2022/07/31 01:48:45;;;;;;;;;2.00;1.33;;;;;;;;5011113;28;52471;-59
2022/07/31 01:51:12;;;;;;;;;2.67;2.67;;;;;;;;5008085;28;51095;-59
2022/07/31 01:53:39;;;;;;;;;3.33;3.33;;;;;;;;5007934;28;52330;-59
2022/07/31 01:56:05;;;;;;;;;3.00;3.00;;;;;;;;5007674;28;51232;-59
2022/07/31 01:58:36;;;;;;;;;3.00;3.00;;;;;;;;5011167;28;51179;-59
2022/07/31 02:01:02;;;;;;;;;3.00;3.00;;;;;;;;5012888;28;51833;-60
2022/07/31 02:03:29;;;;;;;;;2.00;2.00;;;;;;;;5011951;28;51122;-61
2022/07/31 02:05:55;;;;;;;;;3.00;3.00;;;;;;;;5008239;28;51388;-59
2022/07/31 02:08:21;;;;;;;;;2.67;2.67;;;;;;;;5011543;28;51186;-60
2022/07/31 02:10:47;;;;;;;;;3.00;3.00;;;;;;;;5011684;28;51252;-60
2022/07/31 02:13:13;;;;;;;;;1.00;1.00;;;;;;;;5012265;28;51154;-60
2022/07/31 02:15:40;;;;;;;;;2.33;2.33;;;;;;;;5010771;28;51567;-60
2022/07/31 02:18:06;;;;;;;;;3.00;3.00;;;;;;;;5010584;28;52680;-60
2022/07/31 02:20:32;;;;;;;;;3.00;3.00;;;;;;;;5011937;28;51109;-61
2022/07/31 02:22:57;;;;;;;;;3.00;3.00;;;;;;;;5011365;28;51192;-61
2022/07/31 02:25:22;;;;;;;;;4.00;2.00;;;;;;;;5012594;28;51204;-61
2022/07/31 02:27:49;;;;;;;;;3.00;2.33;;;;;;;;5012942;28;52267;-59
2022/07/31 02:30:15;;;;;;;;;1.67;1.67;;;;;;;;5011068;28;51159;-60
2022/07/31 02:32:41;;;;;;;;;0.67;0.67;;;;;;;;5011626;28;51375;-59
2022/07/31 02:35:06;;;;;;;;;1.33;1.33;;;;;;;;5012873;28;51187;-59
2022/07/31 02:37:33;;;;;;;;;1.67;1.00;;;;;;;;5010816;28;51107;-58
2022/07/31 02:39:59;;;;;;;;;2.00;2.00;;;;;;;;5011100;28;51193;-59
2022/07/31 02:42:25;;;;;;;;;2.00;1.00;;;;;;;;5011668;28;51254;-60
2022/07/31 02:44:51;;;;;;;;;2.00;1.00;;;;;;;;5007371;28;51147;-59
2022/07/31 02:47:16;;;;;;;;;1.33;1.33;;;;;;;;5011682;28;52526;-59
2022/07/31 02:49:44;;;;;;;;;2.00;2.00;;;;;;;;5011412;28;51091;-62
2022/07/31 02:52:09;;;;;;;;;2.00;1.67;;;;;;;;5011595;28;51295;-58
2022/07/31 02:54:35;;;;;;;;;1.00;1.00;;;;;;;;5011478;28;51063;-58
2022/07/31 02:57:01;;;;;;;;;1.00;1.00;;;;;;;;5010422;28;52081;-58
2022/07/31 02:59:26;;;;;;;;;1.00;1.00;;;;;;;;5007023;28;51207;-58
2022/07/31 03:01:51;;;;;;;;;1.00;1.00;;;;;;;;5010468;28;51162;-59
2022/07/31 03:04:16;;;;;;;;;2.00;1.33;;;;;;;;5011457;28;51178;-60
2022/07/31 03:06:42;;;;;;;;;1.00;1.00;;;;;;;;5009870;28;51319;-60
2022/07/31 03:09:07;;;;;;;;;2.00;2.00;;;;;;;;5011187;28;51177;-60
2022/07/31 03:11:32;;;;;;;;;3.00;2.00;;;;;;;;5010185;28;52459;-60
2022/07/31 03:13:59;;;;;;;;;3.67;3.00;;;;;;;;5011120;28;51454;-60
2022/07/31 03:16:25;;;;;;;;;2.67;2.67;;;;;;;;5009015;28;51883;-59
2022/07/31 03:18:51;;;;;;;;;3.00;3.00;;;;;;;;5009780;28;51138;-59
2022/07/31 03:21:18;;;;;;;;;3.67;3.67;;;;;;;;5010384;28;51138;-59
2022/07/31 03:23:44;;;;;;;;;4.00;4.00;;;;;;;;5010037;28;51326;-59
2022/07/31 03:26:09;;;;;;;;;5.00;5.00;;;;;;;;5009554;28;51052;-59
2022/07/31 03:28:35;;;;;;;;;5.00;5.00;;;;;;;;5010612;28;51174;-60
2022/07/31 03:31:00;;;;;;;;;6.33;6.33;;;;;;;;5009417;28;51361;-60
2022/07/31 03:33:25;;;;;;;;;9.00;8.00;;;;;;;;5010060;28;51130;-60
2022/07/31 03:35:52;;;;;;;;;8.33;7.33;;;;;;;;5009857;28;51258;-60
2022/07/31 03:38:17;;;;;;;;;8.33;8.00;;;;;;;;5009733;28;52065;-60
2022/07/31 03:40:42;;;;;;;;;8.00;8.00;;;;;;;;5009883;28;51276;-59
2022/07/31 03:43:08;;;;;;;;;11.33;10.67;;;;;;;;5013394;28;51142;-60
2022/07/31 03:45:33;;;;;;;;;8.33;8.00;;;;;;;;5013216;28;51265;-60
2022/07/31 03:47:59;;;;;;;;;8.67;8.67;;;;;;;;5013324;28;51132;-62
2022/07/31 03:50:25;;;;;;;;;9.00;9.00;;;;;;;;5013841;28;51158;-59
2022/07/31 03:52:50;;;;;;;;;14.00;14.00;;;;;;;;5013368;28;51275;-59
2022/07/31 03:55:16;;;;;;;;;15.75;14.25;;;;;;;;5013795;28;52006;-59
2022/07/31 03:57:42;;;;;;;;;14.75;13.50;;;;;;;;5013841;28;51046;-59
2022/07/31 04:00:08;;;;;;;;;18.25;17.00;;;;;;;;5012851;28;51039;-59
2022/07/31 04:02:33;;;;;;;;;14.33;13.33;;;;;;;;5012610;28;51406;-60
2022/07/31 04:04:58;;;;;;;;;15.25;14.75;;;;;;;;5012551;28;51258;-61
2022/07/31 04:07:23;;;;;;;;;14.50;14.00;;;;;;;;5012537;28;51156;-60
2022/07/31 04:09:49;;;;;;;;;17.25;17.25;;;;;;;;5013756;28;51251;-59
2022/07/31 04:12:14;;;;;;;;;19.00;18.50;;;;;;;;5013734;28;51117;-59
2022/07/31 04:14:40;;;;;;;;;16.50;15.25;;;;;;;;5013170;28;51330;-58
2022/07/31 04:17:05;;;;;;;;;18.25;16.25;;;;;;;;5008286;28;51191;-60
2022/07/31 04:19:31;;;;;;;;;17.00;15.50;;;;;;;;5008740;28;51337;-59
2022/07/31 04:21:56;;;;;;;;;13.25;13.00;;;;;;;;5012860;28;51269;-59
2022/07/31 04:24:22;;;;;;;;;17.25;15.00;;;;;;;;5012229;28;52175;-60
2022/07/31 04:26:48;;;;;;;;;15.25;14.75;;;;;;;;5012286;28;51141;-59
2022/07/31 04:29:13;;;;;;;;;12.67;12.67;;;;;;;;5012951;28;51228;-60
2022/07/31 04:31:38;;;;;;;;;12.67;11.67;;;;;;;;5012600;28;51441;-60
2022/07/31 04:34:03;;;;;;;;;10.67;10.00;;;;;;;;5012192;28;52341;-60
2022/07/31 04:36:29;;;;;;;;;10.67;10.00;;;;;;;;5011803;28;51195;-60
2022/07/31 04:38:54;;;;;;;;;7.33;7.33;;;;;;;;5012289;28;51310;-60
2022/07/31 04:41:19;;;;;;;;;8.00;7.00;;;;;;;;5012510;28;51376;-60
2022/07/31 04:43:44;;;;;;;;;7.00;6.67;;;;;;;;5012239;28;51198;-60
2022/07/31 04:46:10;;;;;;;;;9.33;8.67;;;;;;;;5012102;28;51272;-60
2022/07/31 04:48:35;;;;;;;;;7.33;7.33;;;;;;;;5012507;28;51095;-60
2022/07/31 04:51:00;;;;;;;;;7.33;7.33;;;;;;;;5011655;28;51354;-60
2022/07/31 04:53:25;;;;;;;;;9.00;8.33;;;;;;;;5009694;28;51304;-60
2022/07/31 04:58:35;;;;;;;;;9.00;8.67;;;;;;;;5010818;28;51245;-60
2022/07/31 05:01:01;;;;;;;;;6.33;5.33;;;;;;;;5010647;28;51116;-60
2022/07/31 05:03:26;;;;;;;;;5.67;5.67;;;;;;;;5010200;28;51365;-60
2022/07/31 05:05:51;;;;;;;;;5.00;5.00;;;;;;;;5010331;28;51209;-61
2022/07/31 05:08:16;;;;;;;;;7.00;6.00;;;;;;;;5011605;28;51095;-60
2022/07/31 05:13:26;;;;;;;;;6.67;6.33;;;;;;;;5010986;28;51152;-58
2022/07/31 05:15:51;;;;;;;;;5.33;5.33;;;;;;;;5007366;28;51182;-60
2022/07/31 05:18:16;;;;;;;;;5.67;5.67;;;;;;;;5012648;28;51079;-60
2022/07/31 05:20:41;;;;;;;;;7.00;6.33;;;;;;;;5011936;28;52414;-60
2022/07/31 05:23:06;;;;;;;;;5.00;5.00;;;;;;;;5011203;28;51957;-62
2022/07/31 05:25:32;;;;;;;;;7.33;7.33;;;;;;;;5011326;28;51101;-60
2022/07/31 05:27:57;;;;;;;;;7.00;6.67;;;;;;;;5011305;28;51118;-61
2022/07/31 05:30:22;;;;;;;;;7.00;6.33;;;;;;;;5011776;28;51353;-60
2022/07/31 05:32:47;;;;;;;;;6.00;5.33;;;;;;;;5010234;28;52309;-60
2022/07/31 05:35:12;;;;;;;;;5.00;5.00;;;;;;;;5012133;28;51161;-60
2022/07/31 05:37:38;;;;;;;;;7.33;6.67;;;;;;;;5011035;28;51409;-60
2022/07/31 05:40:03;;;;;;;;;6.00;6.00;;;;;;;;5011822;28;51077;-60
2022/07/31 05:42:28;;;;;;;;;5.33;5.33;;;;;;;;5010271;28;52667;-60
2022/07/31 05:44:53;;;;;;;;;6.67;6.67;;;;;;;;5011105;28;51307;-59
2022/07/31 05:47:19;;;;;;;;;6.00;6.00;;;;;;;;5011978;28;51172;-60
2022/07/31 05:49:44;;;;;;;;;6.33;5.33;;;;;;;;5007903;28;51200;-59
2022/07/31 05:52:09;;;;;;;;;5.67;5.00;;;;;;;;5010502;28;51254;-59
2022/07/31 05:54:34;;;;;;;;;8.33;6.67;;;;;;;;5010817;28;51126;-60
2022/07/31 05:57:00;;;;;;;;;6.00;6.00;;;;;;;;5007634;28;51279;-59
2022/07/31 05:59:25;;;;;;;;;4.00;4.00;;;;;;;;5010541;28;52587;-59
2022/07/31 06:01:50;;;;;;;;;4.67;4.67;;;;;;;;5011143;28;52099;-58
2022/07/31 06:04:15;;;;;;;;;5.00;5.00;;;;;;;;5011680;28;51214;-60
2022/07/31 06:06:41;;;;;;;;;6.00;6.00;;;;;;;;5011371;28;52684;-59
2022/07/31 06:09:06;;;;;;;;;5.33;5.00;;;;;;;;5012073;28;51313;-59
2022/07/31 06:11:31;;;;;;;;;6.00;5.33;;;;;;;;5011521;28;52178;-58
2022/07/31 06:13:57;;;;;;;;;6.00;6.00;;;;;;;;5011990;28;51414;-59
2022/07/31 06:16:22;;;;;;;;;4.67;4.67;;;;;;;;5011073;28;51196;-60
2022/07/31 06:18:47;;;;;;;;;6.33;6.00;;;;;;;;5011794;28;51368;-59
2022/07/31 06:21:12;;;;;;;;;4.67;4.67;;;;;;;;5011596;28;52011;-59
2022/07/31 06:23:38;;;;;;;;;7.00;6.00;;;;;;;;5011592;28;51236;-60
2022/07/31 06:26:03;;;;;;;;;5.33;5.33;;;;;;;;5011865;28;51338;-60
2022/07/31 06:28:28;;;;;;;;;4.67;4.00;;;;;;;;5010741;28;51393;-60
2022/07/31 06:30:53;;;;;;;;;6.00;5.00;;;;;;;;5010067;28;52437;-60
2022/07/31 06:33:18;;;;;;;;;5.00;5.00;;;;;;;;5010592;28;51327;-59
2022/07/31 06:35:43;;;;;;;;;6.33;5.33;;;;;;;;5009939;28;51183;-59
2022/07/31 06:38:09;;;;;;;;;4.67;4.67;;;;;;;;5010767;28;51107;-60
2022/07/31 06:40:34;;;;;;;;;5.00;5.00;;;;;;;;5009914;28;51217;-60
2022/07/31 06:42:59;;;;;;;;;5.00;5.00;;;;;;;;5009454;28;51158;-59
2022/07/31 06:45:24;;;;;;;;;5.00;5.00;;;;;;;;5009554;28;51198;-59
2022/07/31 06:47:50;;;;;;;;;4.33;4.33;;;;;;;;5009275;28;51321;-59
2022/07/31 06:50:15;;;;;;;;;6.00;5.67;;;;;;;;5009467;28;51166;-60
2022/07/31 06:52:40;;;;;;;;;6.00;6.00;;;;;;;;5009403;28;51856;-60
2022/07/31 06:55:06;;;;;;;;;6.33;6.00;;;;;;;;5010241;28;51668;-59
2022/07/31 06:57:31;;;;;;;;;5.67;5.00;;;;;;;;5010693;28;51206;-60
2022/07/31 06:59:57;;;;;;;;;5.00;5.00;;;;;;;;5010920;28;51253;-60
2022/07/31 07:02:22;;;;;;;;;5.00;5.00;;;;;;;;5009376;28;51153;-58
2022/07/31 07:04:47;;;;;;;;;5.67;5.67;;;;;;;;5006836;28;51477;-60
2022/07/31 07:07:13;;;;;;;;;7.00;7.00;;;;;;;;4989056;28;51281;-60
2022/07/31 07:09:38;;;;;;;;;3.00;3.00;;;;;;;;4986341;28;52657;-59
2022/07/31 07:12:03;;;;;;;;;8.00;8.00;;;;;;;;4985529;28;51119;-59
2022/07/31 07:14:29;;;;;;;;;5.00;5.00;;;;;;;;4985412;28;51110;-59
2022/07/31 07:16:54;;;;;;;;;7.00;6.67;;;;;;;;4984975;28;51209;-58
2022/07/31 07:19:19;;;;;;;;;5.00;4.67;;;;;;;;4986328;28;52329;-59
2022/07/31 07:21:44;;;;;;;;;4.67;4.67;;;;;;;;4985342;28;51201;-59
2022/07/31 07:24:10;;;;;;;;;5.00;5.00;;;;;;;;4985949;28;51347;-59
2022/07/31 07:26:35;;;;;;;;;6.33;6.33;;;;;;;;4985497;28;51429;-59
2022/07/31 07:29:01;;;;;;;;;5.00;5.00;;;;;;;;4986193;28;52271;-59
2022/07/31 07:31:27;;;;;;;;;7.00;7.00;;;;;;;;4985581;28;51160;-63
2022/07/31 07:33:52;;;;;;;;;6.67;6.00;;;;;;;;4986119;28;51323;-59
2022/07/31 07:36:17;;;;;;;;;7.00;7.00;;;;;;;;4986930;28;51138;-59
2022/07/31 07:38:43;;;;;;;;;7.33;7.00;;;;;;;;4984942;28;51526;-59
2022/07/31 07:41:08;;;;;;;;;5.00;5.00;;;;;;;;4985378;28;51245;-61
2022/07/31 07:43:33;;;;;;;;;6.00;6.00;;;;;;;;4985910;28;51914;-59
2022/07/31 07:45:58;;;;;;;;;6.33;5.67;;;;;;;;4983870;28;51232;-58
2022/07/31 07:48:23;;;;;;;;;5.33;5.00;;;;;;;;4984186;28;52313;-59
2022/07/31 07:50:49;;;;;;;;;5.00;5.00;;;;;;;;4985506;28;51140;-60
2022/07/31 07:53:14;;;;;;;;;6.33;6.33;;;;;;;;4986009;28;51611;-59
2022/07/31 07:55:39;;;;;;;;;6.00;5.00;;;;;;;;4985386;28;51267;-60
2022/07/31 07:58:04;;;;;;;;;6.00;6.00;;;;;;;;4985103;28;51260;-59
2022/07/31 08:00:30;;;;;;;;;5.67;5.67;;;;;;;;4984801;28;51211;-59
2022/07/31 08:02:55;;;;;;;;;6.33;6.33;;;;;;;;4985706;28;51371;-60
2022/07/31 08:05:20;;;;;;;;;7.00;6.00;;;;;;;;4986158;28;51156;-60
2022/07/31 08:07:45;;;;;;;;;5.67;5.67;;;;;;;;4989283;28;51192;-60
2022/07/31 08:10:11;;;;;;;;;6.67;6.67;;;;;;;;4972123;28;51316;-59
2022/07/31 08:12:36;;;;;;;;;6.00;6.00;;;;;;;;4989221;28;52170;-59
2022/07/31 08:15:02;;;;;;;;;7.00;6.67;;;;;;;;4989015;28;51224;-61
2022/07/31 08:17:27;;;;;;;;;8.33;7.67;;;;;;;;4988867;28;52244;-60
2022/07/31 08:19:52;;;;;;;;;8.00;8.00;;;;;;;;4989128;28;51506;-59
2022/07/31 08:22:18;;;;;;;;;8.00;7.00;;;;;;;;4989587;28;51107;-60
2022/07/31 08:24:43;;;;;;;;;6.33;5.67;;;;;;;;4989994;28;51068;-61
2022/07/31 08:27:24;;;;;;;;;7.33;7.33;;;;;;;;4971640;28;52772;-60
2022/07/31 08:30:01;;;;;;;;;7.00;7.00;;;;;;;;4990812;28;51494;-60
2022/07/31 08:32:27;;;;;;;;;8.33;8.33;;;;;;;;4991974;28;51209;-61
2022/07/31 08:34:52;;;;;;;;;6.00;6.00;;;;;;;;4994412;28;51329;-59
2022/07/31 08:37:18;;;;;;;;;7.33;7.00;;;;;;;;4992055;28;52272;-59
2022/07/31 08:39:44;;;;;;;;;6.00;6.00;;;;;;;;4992728;28;51144;-60
2022/07/31 08:42:09;;;;;;;;;7.00;7.00;;;;;;;;4974114;28;51132;-61
2022/07/31 08:44:38;;;;;;;;;9.33;8.67;;;;;;;;4992538;28;51107;-59
2022/07/31 08:47:11;;;;;;;;;8.00;8.00;;;;;;;;4973329;28;51823;-59
2022/07/31 08:49:39;;;;;;;;;8.67;8.67;;;;;;;;4993287;28;51342;-60
2022/07/31 08:52:04;;;;;;;;;9.00;9.00;;;;;;;;4993359;28;51211;-60
2022/07/31 08:54:31;;;;;;;;;6.67;6.67;;;;;;;;4992831;28;51473;-60
2022/07/31 08:56:56;;;;;;;;;7.33;7.33;;;;;;;;4992356;28;52099;-60
2022/07/31 08:59:22;;;;;;;;;9.00;9.00;;;;;;;;4991991;28;51123;-60
2022/07/31 09:01:47;;;;;;;;;7.00;7.00;;;;;;;;4991831;28;51416;-61
2022/07/31 09:04:12;;;;;;;;;8.67;8.67;;;;;;;;4993138;28;51259;-60
2022/07/31 09:06:37;;;;;;;;;6.33;6.33;;;;;;;;4987434;28;51388;-60
2022/07/31 09:09:03;;;;;;;;;7.33;7.33;;;;;;;;4987935;28;51158;-59
2022/07/31 09:11:28;;;;;;;;;6.00;6.00;;;;;;;;4988174;28;51164;-59
2022/07/31 09:13:54;;;;;;;;;8.00;7.67;;;;;;;;4986597;28;51189;-60
2022/07/31 09:16:20;;;;;;;;;7.67;7.33;;;;;;;;4987168;28;51780;-60
2022/07/31 09:18:55;;;;;;;;;5.67;5.67;;;;;;;;4987702;28;51159;-60
2022/07/31 09:21:21;;;;;;;;;8.00;7.33;;;;;;;;4986429;28;51183;-60
2022/07/31 09:23:46;;;;;;;;;7.67;7.00;;;;;;;;4985684;28;51145;-59
2022/07/31 09:26:11;;;;;;;;;7.67;7.00;;;;;;;;4985308;28;51229;-60
2022/07/31 09:28:41;;;;;;;;;8.00;8.00;;;;;;;;4986519;28;52434;-60
2022/07/31 09:31:08;;;;;;;;;7.00;7.00;;;;;;;;4985691;28;51340;-60
2022/07/31 09:33:35;;;;;;;;;7.67;6.33;;;;;;;;4986694;28;51110;-61
2022/07/31 09:36:01;;;;;;;;;7.67;7.67;;;;;;;;4986423;28;52075;-61
2022/07/31 09:38:33;;;;;;;;;7.33;7.33;;;;;;;;4975917;28;52464;-59
2022/07/31 09:41:14;;;;;;;;;8.00;8.00;;;;;;;;4980802;28;51290;-62
2022/07/31 09:43:40;;;;;;;;;9.00;9.00;;;;;;;;4977046;28;51159;-59
2022/07/31 09:46:06;;;;;;;;;8.00;7.00;;;;;;;;4976333;28;51314;-59
2022/07/31 09:48:32;;;;;;;;;10.67;9.67;;;;;;;;4976906;28;51055;-60
2022/07/31 09:50:57;;;;;;;;;8.33;8.33;;;;;;;;4976711;28;51243;-60
2022/07/31 09:53:23;;;;;;;;;8.00;8.00;;;;;;;;4977725;28;51354;-60
2022/07/31 09:55:52;;;;;;;;;8.33;8.00;;;;;;;;4987072;28;51256;-60
2022/07/31 09:58:18;;;;;;;;;5.00;5.00;;;;;;;;4983475;28;51124;-60
2022/07/31 10:00:45;;;;;;;;;10.00;8.67;;;;;;;;4977488;28;52476;-60
2022/07/31 10:03:12;;;;;;;;;9.33;8.67;;;;;;;;4976037;28;51127;-59
2022/07/31 10:05:40;;;;;;;;;8.67;8.00;;;;;;;;4984291;28;51937;-59
2022/07/31 10:08:06;;;;;;;;;8.00;8.00;;;;;;;;4995812;28;51280;-59
2022/07/31 10:10:33;;;;;;;;;8.00;8.00;;;;;;;;4980181;28;51162;-59
2022/07/31 10:13:02;;;;;;;;;7.33;7.33;;;;;;;;4987058;28;51424;-59
2022/07/31 10:15:27;;;;;;;;;9.00;8.33;;;;;;;;4985258;28;52422;-60
2022/07/31 10:17:53;;;;;;;;;10.00;9.67;;;;;;;;4997963;28;51130;-60
2022/07/31 10:20:20;;;;;;;;;10.00;9.33;;;;;;;;4979401;28;51260;-60
2022/07/31 10:22:47;;;;;;;;;9.00;9.00;;;;;;;;4997865;28;51500;-60
2022/07/31 10:25:28;;;;;;;;;9.00;8.67;;;;;;;;4996378;28;51343;-60
2022/07/31 10:27:55;;;;;;;;;7.00;7.00;;;;;;;;4997995;28;51210;-60
2022/07/31 10:30:22;;;;;;;;;8.67;8.67;;;;;;;;4996646;28;51172;-60
2022/07/31 10:32:49;;;;;;;;;7.33;7.33;;;;;;;;4985998;28;51210;-60
2022/07/31 10:35:14;;;;;;;;;8.67;8.67;;;;;;;;4976965;28;51862;-60
2022/07/31 10:37:57;;;;;;;;;9.67;8.33;;;;;;;;4992627;28;51197;-62
2022/07/31 10:40:25;;;;;;;;;8.33;8.33;;;;;;;;4992719;28;51158;-60
2022/07/31 10:43:01;;;;;;;;;83.20;80.40;;;;;;;;4993826;28;51079;-60
2022/07/31 10:45:30;;;;;;;;;8.00;8.00;;;;;;;;4994615;28;53208;-62
2022/07/31 10:47:56;;;;;;;;;9.00;9.00;;;;;;;;4993933;28;51230;-59
2022/07/31 10:50:23;;;;;;;;;8.67;8.33;;;;;;;;4994276;28;51279;-59
2022/07/31 10:52:48;;;;;;;;;9.00;9.00;;;;;;;;4976720;28;51102;-59
2022/07/31 10:55:21;;;;;;;;;9.00;9.00;;;;;;;;4995326;28;51987;-60
2022/07/31 10:57:46;;;;;;;;;8.67;8.67;;;;;;;;4994329;28;51153;-60
2022/07/31 11:00:12;;;;;;;;;10.33;9.33;;;;;;;;4993106;28;51284;-59
2022/07/31 11:02:38;;;;;;;;;8.33;8.00;;;;;;;;4993200;28;51292;-59
2022/07/31 11:05:07;;;;;;;;;7.00;7.00;;;;;;;;4993689;28;51186;-60
2022/07/31 11:07:32;;;;;;;;;8.00;8.00;;;;;;;;4993691;28;51255;-60
2022/07/31 11:10:07;;;;;;;;;7.00;7.00;;;;;;;;4993763;28;51284;-60
2022/07/31 11:12:33;;;;;;;;;5.00;5.00;;;;;;;;4993855;28;52503;-59
2022/07/31 11:14:58;;;;;;;;;8.00;7.33;;;;;;;;4992444;28;51971;-59
2022/07/31 11:17:33;;;;;;;;;8.67;8.33;;;;;;;;4993451;28;51176;-59
2022/07/31 11:19:58;;;;;;;;;8.00;8.00;;;;;;;;4995116;28;51246;-59
2022/07/31 11:22:26;;;;;;;;;7.33;7.33;;;;;;;;4993072;28;51487;-62
2022/07/31 11:24:54;;;;;;;;;7.00;7.00;;;;;;;;4992752;28;51237;-61
2022/07/31 11:27:28;;;;;;;;;7.00;7.00;;;;;;;;4994435;28;51171;-60
2022/07/31 11:29:53;;;;;;;;;6.00;6.00;;;;;;;;4993648;28;51214;-59
2022/07/31 11:32:18;;;;;;;;;8.67;8.67;;;;;;;;4992876;28;52692;-58
2022/07/31 11:34:43;;;;;;;;;8.67;7.67;;;;;;;;4976013;28;51370;-60
2022/07/31 11:37:14;;;;;;;;;9.00;9.00;;;;;;;;4992759;28;51239;-60
2022/07/31 11:39:39;;;;;;;;;9.00;9.00;;;;;;;;4992349;28;51151;-59
2022/07/31 11:42:05;;;;;;;;;7.33;7.33;;;;;;;;4992063;28;51363;-60
2022/07/31 11:44:30;;;;;;;;;7.00;7.00;;;;;;;;4982497;28;51147;-60
2022/07/31 11:46:55;;;;;;;;;51.50;43.75;;;;;;;;4994249;28;51233;-60
2022/07/31 11:49:21;;;;;;;;;6.33;6.33;;;;;;;;4994471;28;51270;-60
2022/07/31 11:51:47;;;;;;;;;6.67;6.67;;;;;;;;4995345;28;51237;-60
2022/07/31 11:54:22;;;;;;;;;6.00;5.33;;;;;;;;4993779;28;51873;-59
2022/07/31 11:56:50;;;;;;;;;6.00;5.33;;;;;;;;4989143;28;51229;-60
2022/07/31 11:59:15;;;;;;;;;8.00;8.00;;;;;;;;4983274;28;51251;-60
2022/07/31 12:01:41;;;;;;;;;6.33;6.33;;;;;;;;4982765;28;51320;-59
2022/07/31 12:04:06;;;;;;;;;8.00;8.00;;;;;;;;4996145;28;51858;-60
2022/07/31 12:06:31;;;;;;;;;6.67;6.00;;;;;;;;4997634;28;52577;-60
2022/07/31 12:08:57;;;;;;;;;7.00;7.00;;;;;;;;4997310;28;51060;-60
2022/07/31 12:11:22;;;;;;;;;7.00;7.00;;;;;;;;4998952;28;51330;-60
2022/07/31 12:13:48;;;;;;;;;8.33;8.33;;;;;;;;4991284;28;52010;-60
2022/07/31 12:16:14;;;;;;;;;8.00;8.00;;;;;;;;4986285;28;51130;-60
2022/07/31 12:18:52;;;;;;;;;6.33;6.00;;;;;;;;4987929;28;51193;-59
2022/07/31 12:21:18;;;;;;;;;65.25;53.75;;;;;;;;4986715;28;51163;-61
2022/07/31 12:23:48;;;;;;;;;11.00;11.00;;;;;;;;4988884;28;52443;-60
2022/07/31 12:26:27;;;;;;;;;7.33;7.33;;;;;;;;4999963;28;51507;-60
2022/07/31 12:29:11;;;;;;;;;6.00;6.00;;;;;;;;4999858;28;51130;-60
2022/07/31 12:31:46;;;;;;;;;7.00;7.00;;;;;;;;4999485;28;51178;-60
2022/07/31 12:34:12;;;;;;;;;4.67;4.67;;;;;;;;4999138;28;53638;-60
2022/07/31 12:36:37;;;;;;;;;6.33;6.33;;;;;;;;4998928;28;51130;-58
2022/07/31 12:39:03;;;;;;;;;6.00;6.00;;;;;;;;4999134;28;51290;-60
2022/07/31 12:41:29;;;;;;;;;5.00;5.00;;;;;;;;4988208;28;51308;-58
2022/07/31 12:43:54;;;;;;;;;7.00;6.00;;;;;;;;4987556;28;52563;-60
2022/07/31 12:46:20;;;;;;;;;63.75;53.50;;;;;;;;4994689;28;51235;-61
2022/07/31 12:48:46;;;;;;;;;5.33;4.33;;;;;;;;4994615;28;51233;-59
2022/07/31 12:51:11;;;;;;;;;4.00;4.00;;;;;;;;4977536;28;52669;-59
2022/07/31 12:53:36;;;;;;;;;5.00;3.33;;;;;;;;4993996;28;51246;-59
2022/07/31 12:56:01;;;;;;;;;5.67;5.33;;;;;;;;4994208;28;51066;-60
2022/07/31 12:58:27;;;;;;;;;9.33;7.33;;;;;;;;4979003;28;51321;-59
2022/07/31 13:00:53;;;;;;;;;5.33;5.33;;;;;;;;4977658;28;51420;-60
2022/07/31 13:03:18;;;;;;;;;4.67;4.67;;;;;;;;4994527;28;51976;-62
2022/07/31 13:05:44;;;;;;;;;6.67;6.67;;;;;;;;4994463;28;51307;-59
2022/07/31 13:08:09;;;;;;;;;6.00;5.33;;;;;;;;4996718;28;51336;-59
2022/07/31 13:10:34;;;;;;;;;6.67;6.67;;;;;;;;4996417;28;51309;-59
2022/07/31 13:13:00;;;;;;;;;5.00;5.00;;;;;;;;4995270;28;51829;-59
2022/07/31 13:15:28;;;;;;;;;3.67;3.33;;;;;;;;4994275;28;51138;-59
2022/07/31 13:17:57;;;;;;;;;4.33;3.67;;;;;;;;4996584;28;51209;-61
2022/07/31 13:20:23;;;;;;;;;3.33;3.33;;;;;;;;4995021;28;51110;-59
2022/07/31 13:22:48;;;;;;;;;6.33;6.33;;;;;;;;4993945;28;53062;-60
2022/07/31 13:25:13;;;;;;;;;3.67;3.00;;;;;;;;4994227;28;51199;-60
2022/07/31 13:27:39;;;;;;;;;4.33;4.33;;;;;;;;4992880;28;51258;-60
2022/07/31 13:30:05;;;;;;;;;4.33;4.00;;;;;;;;4994326;28;51049;-60
2022/07/31 13:32:30;;;;;;;;;4.00;4.00;;;;;;;;4993305;28;51319;-59
2022/07/31 13:34:56;;;;;;;;;3.33;2.33;;;;;;;;4989106;28;52251;-59
2022/07/31 13:37:21;;;;;;;;;3.00;3.00;;;;;;;;4998437;28;51537;-60
2022/07/31 13:39:46;;;;;;;;;8.00;7.00;;;;;;;;4998012;28;52623;-60
2022/07/31 13:42:11;;;;;;;;;5.00;5.00;;;;;;;;4980037;28;54447;-59
2022/07/31 13:44:36;;;;;;;;;3.67;3.33;;;;;;;;4980311;28;51225;-60
2022/07/31 13:47:02;;;;;;;;;4.67;4.67;;;;;;;;4998612;28;51471;-60
2022/07/31 13:49:30;;;;;;;;;3.00;3.00;;;;;;;;4998384;28;51171;-59
2022/07/31 13:51:56;;;;;;;;;4.33;4.33;;;;;;;;4998027;28;52525;-60
2022/07/31 13:54:21;;;;;;;;;4.67;4.67;;;;;;;;4997570;28;51121;-59
2022/07/31 13:56:47;;;;;;;;;3.00;3.00;;;;;;;;4998127;28;51276;-60
2022/07/31 13:59:12;;;;;;;;;4.00;3.00;;;;;;;;4998759;28;51479;-60
2022/07/31 14:01:41;;;;;;;;;4.00;4.00;;;;;;;;4999070;28;52336;-61
2022/07/31 14:04:06;;;;;;;;;7.67;7.67;;;;;;;;4992062;28;51289;-60
2022/07/31 14:06:31;;;;;;;;;5.00;5.00;;;;;;;;4982303;28;51307;-60
2022/07/31 14:08:57;;;;;;;;;4.33;4.00;;;;;;;;4984923;28;51384;-60
2022/07/31 14:11:22;;;;;;;;;5.00;5.00;;;;;;;;4987507;28;51901;-59
2022/07/31 14:13:47;;;;;;;;;5.00;5.00;;;;;;;;4997465;28;52387;-60
2022/07/31 14:16:12;;;;;;;;;4.00;3.00;;;;;;;;4997598;28;51211;-59
2022/07/31 14:18:37;;;;;;;;;4.00;4.00;;;;;;;;4998479;28;51473;-59
2022/07/31 14:21:05;;;;;;;;;4.00;4.00;;;;;;;;4995222;28;52162;-59
2022/07/31 14:23:30;;;;;;;;;5.00;4.67;;;;;;;;4995820;28;51541;-59
2022/07/31 14:25:55;;;;;;;;;4.33;4.33;;;;;;;;4991715;28;51128;-60
2022/07/31 14:28:20;;;;;;;;;3.33;3.33;;;;;;;;4990721;28;51212;-60
2022/07/31 14:30:46;;;;;;;;;6.33;6.33;;;;;;;;4996482;28;53372;-59
2022/07/31 14:33:12;;;;;;;;;4.67;4.00;;;;;;;;4998096;28;51204;-59
2022/07/31 14:35:38;;;;;;;;;6.00;6.00;;;;;;;;4998525;28;52613;-61
2022/07/31 14:38:03;;;;;;;;;6.00;5.33;;;;;;;;4998396;28;51435;-60
2022/07/31 14:40:29;;;;;;;;;3.67;3.00;;;;;;;;4997179;28;51760;-61